ADDS METAR Data INFO
IDs: Format: Raw Decoded Include TAF

Data at: 0254 UTC 17 Jan 2018

KEVM 170235Z AUTO 24006KT 10SM CLR M15/M20 A3036 RMK AO2 T11521197
KEVM 170215Z AUTO 25007KT 10SM CLR M15/M20 A3038 RMK AO2 T11521197
KEVM 170155Z AUTO 25006KT 10SM CLR M15/M20 A3039 RMK AO2 T11521196
KEVM 170135Z AUTO 24007KT 10SM CLR M15/M20 A3039 RMK AO2 T11521196
KEVM 170115Z AUTO 24006KT 10SM CLR M15/M19 A3040 RMK AO2 T11521195
KEVM 170055Z AUTO 24007KT 10SM CLR M16/M20 A3041 RMK AO2 T11571200
KEVM 170035Z AUTO 25006KT 10SM CLR M16/M20 A3042 RMK AO2 T11571202
KEVM 170015Z AUTO 24009KT 10SM CLR M15/M20 A3042 RMK AO2 T11531200
KEVM 162355Z AUTO 24007KT 10SM CLR M16/M20 A3044 RMK AO2 T11571200 11141 21176
KEVM 162335Z AUTO 24005KT 10SM CLR M16/M19 A3045 RMK AO2 T11561195
KEVM 162315Z AUTO 25005KT 10SM CLR M15/M19 A3045 RMK AO2 T11521193
KEVM 162256Z AUTO 25005KT 10SM CLR M15/M19 A3046 RMK AO2 T11521193
KEVM 162235Z AUTO 25005KT 10SM CLR M15/M19 A3047 RMK AO2 T11471192
KEVM 162215Z AUTO 25005KT 10SM CLR M14/M19 A3047 RMK AO2 T11451193
KEVM 162155Z AUTO 26006KT 10SM CLR M14/M19 A3048 RMK AO2 T11441195
KEVM 162135Z AUTO 26006KT 10SM CLR M14/M19 A3048 RMK AO2 T11411193
KEVM 162115Z AUTO 24007KT 10SM CLR M14/M19 A3049 RMK AO2 T11451194
KEVM 162055Z AUTO 24006KT 10SM CLR M14/M19 A3050 RMK AO2 T11451192
KEVM 162035Z AUTO 25006KT 10SM CLR M14/M19 A3050 RMK AO2 T11451192
KEVM 162015Z AUTO 24007KT 10SM CLR M15/M19 A3051 RMK AO2 T11461192
KEVM 161955Z AUTO 27005KT 10SM CLR M14/M19 A3051 RMK AO2 T11451193
KEVM 161935Z AUTO 26005KT 10SM CLR M15/M20 A3051 RMK AO2 T11511199
KEVM 161915Z AUTO 25003KT 10SM CLR M15/M20 A3052 RMK AO2 T11531201
KEVM 161855Z AUTO 00000KT 10SM CLR M16/M20 A3053 RMK AO2 T11601205
KEVM 161835Z AUTO 29003KT 10SM CLR M17/M21 A3054 RMK AO2 T11661210
KEVM 161815Z AUTO 28004KT 10SM CLR M17/M21 A3054 RMK AO2 T11661210
KEVM 161755Z AUTO 28006KT 10SM CLR M18/M22 A3056 RMK AO2 T11761217 11176 21208
KEVM 161735Z AUTO 28004KT 10SM CLR M18/M22 A3057 RMK AO2 T11801220
KEVM 161715Z AUTO 30005KT 10SM CLR M18/M22 A3058 RMK AO2 T11801220
KEVM 161655Z AUTO 28006KT 10SM CLR M18/M22 A3058 RMK AO2 T11801220
KEVM 161635Z AUTO 32004KT 10SM CLR M19/M22 A3058 RMK AO2 T11871225
KEVM 161615Z AUTO 00000KT 10SM SCT010 M19/M23 A3059 RMK AO2 T11921229
KEVM 161555Z AUTO 35004KT 7SM BKN010 M19/M22 A3060 RMK AO2 T11951225
KEVM 161535Z AUTO 31004KT 10SM SCT010 M19/M22 A3060 RMK AO2 T11951225
KEVM 161515Z AUTO 29003KT 5SM -SN SCT010 M19/M22 A3060 RMK AO2 T11951225
KEVM 161455Z AUTO 28003KT 10SM OVC010 M19/M22 A3060 RMK AO2 T11951225
KEVM 161435Z AUTO 00000KT 10SM OVC010 M19/M22 A3060 RMK AO2 T11951223
KEVM 161415Z AUTO 30003KT 10SM OVC010 M21/M24 A3060 RMK AO2 T12081239
KEVM 161355Z AUTO 29003KT 5SM -SN BKN010 M20/M23 A3059 RMK AO2 T11991230
KEVM 161335Z AUTO 28003KT 7SM -SN OVC010 M19/M22 A3060 RMK AO2 T11951224
KEVM 161315Z AUTO 35003KT 10SM BKN010 M19/M22 A3060 RMK AO2 T11951223
KEVM 161255Z AUTO 33004KT 10SM -SN OVC010 M19/M22 A3060 RMK AO2 T11931221
KEVM 161235Z AUTO 34003KT 5SM -SN OVC010 M19/M22 A3061 RMK AO2 T11911221
KEVM 161215Z AUTO 00000KT 5SM -SN OVC010 M19/M22 A3061 RMK AO2 T11931222
KEVM 161155Z AUTO 34004KT 7SM -SN OVC010 M19/M22 A3060 RMK AO2 T11931222 11166 21208
KEVM 161135Z AUTO 35003KT 5SM -SN OVC010 M19/M22 A3060 RMK AO2 T11951222
KEVM 161115Z AUTO 00000KT 10SM -SN OVC010 M19/M22 A3060 RMK AO2 T11951223
KEVM 161055Z AUTO 36004KT 10SM OVC010 M19/M22 A3061 RMK AO2 T11901217
KEVM 161035Z AUTO 35003KT 10SM OVC010 M19/M22 A3061 RMK AO2 T11921220
KEVM 161015Z AUTO 36003KT 10SM BKN010 M19/M22 A3061 RMK AO2 T11921221
KEVM 160955Z AUTO 34006KT 10SM SCT010 M19/M22 A3060 RMK AO2 T11951221
KEVM 160935Z AUTO 00000KT 7SM -SN SCT010 M20/M23 A3061 RMK AO2 T12021230
KEVM 160915Z AUTO 34003KT 7SM -SN SCT010 M19/M22 A3061 RMK AO2 T11951222
KEVM 160855Z AUTO 00000KT 10SM -SN SCT010 M19/M22 A3061 RMK AO2 T11921221
KEVM 160835Z AUTO 00000KT 10SM SCT010 M19/M21 A3061 RMK AO2 T11871215
KEVM 160815Z AUTO 36003KT 10SM SCT010 M18/M21 A3060 RMK AO2 T11801210
KEVM 160755Z AUTO 36005KT 10SM OVC010 M18/M21 A3060 RMK AO2 T11801210
KEVM 160735Z AUTO 36004KT 10SM OVC010 M18/M21 A3059 RMK AO2 T11801210
KEVM 160715Z AUTO 01006KT 10SM OVC010 M18/M21 A3060 RMK AO2 T11781206
KEVM 160655Z AUTO 36004KT 10SM OVC012 M18/M21 A3059 RMK AO2 T11771206
KEVM 160635Z AUTO 35005KT 7SM -SN OVC012 M18/M21 A3059 RMK AO2 T11761207
KEVM 160615Z AUTO 01006KT 10SM OVC012 M17/M20 A3059 RMK AO2 T11711202
KEVM 160555Z AUTO 01007KT 7SM -SN OVC012 M17/M20 A3059 RMK AO2 T11661197 11166 21166 411451187
KEVM 160535Z AUTO 01005KT 10SM OVC010 M17/M19 A3060 RMK AO2 T11661195
KEVM 160515Z AUTO 01006KT 10SM OVC010 M17/M19 A3059 RMK AO2 T11661195
KEVM 160455Z AUTO 01005KT 10SM OVC010 M17/M19 A3059 RMK AO2 T11661195
KEVM 160435Z AUTO 01006KT 10SM OVC010 M17/M19 A3059 RMK AO2 T11661195
KEVM 160415Z AUTO 01008KT 10SM OVC010 M17/M19 A3058 RMK AO2 T11661195
KEVM 160355Z AUTO 36005KT 10SM OVC010 M17/M19 A3058 RMK AO2 T11661195
KEVM 160335Z AUTO 36005KT 10SM OVC010 M17/M20 A3058 RMK AO2 T11661197
KEVM 160315Z AUTO 36006KT 10SM -SN OVC012 M17/M20 A3058 RMK AO2 T11661197
KEVM 160255Z AUTO 34006KT 10SM OVC012 M17/M20 A3057 RMK AO2 T11661197
KEVM 160235Z AUTO 36006KT 10SM OVC012 M17/M20 A3056 RMK AO2 T11661198
KEVM 160215Z AUTO 36007KT 320V040 10SM OVC012 M17/M20 A3056 RMK AO2 T11661200
KEVM 160155Z AUTO 36007G15KT 330V030 10SM BKN012 M17/M20 A3056 RMK AO2 T11661200
KEVM 160135Z AUTO 01005KT 10SM BKN012 BKN120 M17/M20 A3054 RMK AO2 T11661200
KEVM 160115Z AUTO 01006KT 10SM SCT012 M17/M20 A3054 RMK AO2 T11661200
KEVM 160055Z AUTO 36004KT 10SM SCT013 M17/M20 A3053 RMK AO2 T11661200
KEVM 160035Z AUTO 36009KT 10SM SCT013 M17/M20 A3052 RMK AO2 T11661200
KEVM 160015Z AUTO 36008KT 10SM CLR M17/M20 A3051 RMK AO2 T11661201
KEVM 152355Z AUTO 01007KT 10SM CLR M17/M20 A3051 RMK AO2 T11661202 11145 21166
KEVM 152335Z AUTO 01007G15KT 10SM CLR M16/M20 A3050 RMK AO2 T11651201
KEVM 152316Z AUTO 01006KT 10SM -SN SCT007 M16/M20 A3050 RMK AO2 T11601197
KEVM 152255Z AUTO 34007KT 320V030 5SM HZ BKN007 M16/M20 A3049 RMK AO2 T11601196
KEVM 152235Z AUTO 34006KT 4SM HZ BKN007 BKN012 M15/M19 A3047 RMK AO2 T11531190
KEVM 152215Z AUTO 34008KT 7SM BKN009 M15/M19 A3046 RMK AO2 T11521191
KEVM 152155Z AUTO 35007G16KT 7SM OVC009 M15/M19 A3046 RMK AO2 T11521192
KEVM 152135Z AUTO 36006KT 4SM HZ OVC009 M15/M19 A3045 RMK AO2 T11511191
KEVM 152115Z AUTO 01008G19KT 7SM SCT007 BKN011 BKN016 M15/M19 A3044 RMK AO2 T11511191
KEVM 152055Z AUTO 01009KT 5SM HZ BKN009 M15/M19 A3043 RMK AO2 T11501189
KEVM 152035Z AUTO 34010G16KT 7SM SCT009 SCT017 M15/M19 A3041 RMK AO2 T11481190
KEVM 152016Z AUTO 35010G14KT 7SM SCT009 M15/M19 A3040 RMK AO2 T11461190
KEVM 151955Z AUTO 36007KT 320V030 10SM CLR M14/M19 A3039 RMK AO2 T11451190
KEVM 151935Z AUTO 36008G14KT 10SM CLR M15/M19 A3039 RMK AO2 T11471193
KEVM 151916Z AUTO 01008G16KT 10SM CLR M15/M20 A3038 RMK AO2 T11501197
KEVM 151855Z AUTO 36008G14KT 10SM CLR M15/M20 A3038 RMK AO2 T11521200
KEVM 151835Z AUTO 34008KT 10SM SCT008 M16/M20 A3038 RMK AO2 T11571205
KEVM 151815Z AUTO 35007KT 7SM SCT008 M16/M21 A3038 RMK AO2 T11611206
KEVM 151755Z AUTO 01007KT 320V040 10SM SCT008 SCT014 SCT050 M17/M21 A3038 RMK AO2 T11661210 11166 21187
KEVM 151735Z AUTO 36007KT 10SM SCT010 SCT014 SCT050 M17/M21 A3038 RMK AO2 T11691212
KEVM 151715Z AUTO 36006KT 10SM SCT008 SCT060 M18/M22 A3038 RMK AO2 T11771221
KEVM 151655Z AUTO 02006KT 10SM SCT009 SCT050 SCT060 M18/M22 A3038 RMK AO2 T11801225
KEVM 151635Z AUTO 35006KT 7SM SCT007 M18/M22 A3037 RMK AO2 T11801225
KEVM 151615Z AUTO 35006KT 7SM BKN007 BKN013 M19/M23 A3037 RMK AO2 T11871230
KEVM 151555Z AUTO 36006KT 10SM SCT007 BKN013 M19/M23 A3036 RMK AO2 T11871230
KEVM 151535Z AUTO 34007KT 7SM BKN007 M19/M23 A3035 RMK AO2 T11871227
KEVM 151515Z AUTO 36006KT 4SM HZ OVC009 M19/M23 A3034 RMK AO2 T11871226
KEVM 151455Z AUTO 34008KT 4SM -SN OVC009 M19/M23 A3034 RMK AO2 T11871227